sensor_id;sensor_type;location;lat;lon;timestamp;pressure;altitude;pressure_sealevel;temperature;humidity
75317;BME280;63913;51.492;10.368;2023-04-07T00:01:35;98465.75;;;4.22;57.81
75317;BME280;63913;51.492;10.368;2023-04-07T00:04:01;98468.09;;;4.18;57.95
75317;BME280;63913;51.492;10.368;2023-04-07T00:06:26;98469.75;;;4.17;57.59
75317;BME280;63913;51.492;10.368;2023-04-07T00:08:52;98466.13;;;4.12;58.27
75317;BME280;63913;51.492;10.368;2023-04-07T00:11:18;98477.19;;;4.13;58.06
75317;BME280;63913;51.492;10.368;2023-04-07T00:13:43;98468.97;;;4.01;58.03
75317;BME280;63913;51.492;10.368;2023-04-07T00:16:08;98464.56;;;3.97;58.05
75317;BME280;63913;51.492;10.368;2023-04-07T00:18:34;98478.69;;;3.92;58.92
75317;BME280;63913;51.492;10.368;2023-04-07T00:20:59;98471.66;;;3.86;58.80
75317;BME280;63913;51.492;10.368;2023-04-07T00:23:24;98469.53;;;3.77;59.07
75317;BME280;63913;51.492;10.368;2023-04-07T00:25:50;98460.34;;;3.79;58.93
75317;BME280;63913;51.492;10.368;2023-04-07T00:28:15;98461.13;;;3.78;58.87
75317;BME280;63913;51.492;10.368;2023-04-07T00:30:40;98467.72;;;3.75;58.89
75317;BME280;63913;51.492;10.368;2023-04-07T00:33:12;98471.88;;;3.73;59.19
75317;BME280;63913;51.492;10.368;2023-04-07T00:35:37;98469.19;;;3.70;59.33
75317;BME280;63913;51.492;10.368;2023-04-07T00:38:03;98469.78;;;3.64;59.48
75317;BME280;63913;51.492;10.368;2023-04-07T00:40:29;98468.94;;;3.65;59.46
75317;BME280;63913;51.492;10.368;2023-04-07T00:42:54;98469.59;;;3.61;59.88
75317;BME280;63913;51.492;10.368;2023-04-07T00:45:20;98468.53;;;3.56;59.73
75317;BME280;63913;51.492;10.368;2023-04-07T00:47:45;98459.22;;;3.57;59.54
75317;BME280;63913;51.492;10.368;2023-04-07T00:50:10;98460.22;;;3.60;59.85
75317;BME280;63913;51.492;10.368;2023-04-07T00:52:36;98461.53;;;3.52;60.15
75317;BME280;63913;51.492;10.368;2023-04-07T00:55:01;98464.78;;;3.50;60.31
75317;BME280;63913;51.492;10.368;2023-04-07T00:57:27;98462.13;;;3.47;60.55
75317;BME280;63913;51.492;10.368;2023-04-07T00:59:53;98454.19;;;3.40;60.15
75317;BME280;63913;51.492;10.368;2023-04-07T01:02:32;98449.13;;;3.40;59.94
75317;BME280;63913;51.492;10.368;2023-04-07T01:13:53;98452.66;;;3.10;61.49
75317;BME280;63913;51.492;10.368;2023-04-07T01:16:38;98449.09;;;3.06;61.12
75317;BME280;63913;51.492;10.368;2023-04-07T01:21:57;98443.78;;;3.02;61.84
75317;BME280;63913;51.492;10.368;2023-04-07T01:27:33;98447.09;;;3.01;61.57
75317;BME280;63913;51.492;10.368;2023-04-07T01:30:02;98440.84;;;2.94;61.79
75317;BME280;63913;51.492;10.368;2023-04-07T01:32:29;98440.06;;;2.95;62.05
75317;BME280;63913;51.492;10.368;2023-04-07T01:34:57;98440.53;;;2.88;62.08
75317;BME280;63913;51.492;10.368;2023-04-07T01:37:25;98440.16;;;2.81;62.23
75317;BME280;63913;51.492;10.368;2023-04-07T01:39:51;98439.19;;;2.79;62.03
75317;BME280;63913;51.492;10.368;2023-04-07T01:42:18;98437.31;;;2.75;62.32
75317;BME280;63913;51.492;10.368;2023-04-07T01:44:44;98434.78;;;2.75;61.82
75317;BME280;63913;51.492;10.368;2023-04-07T01:47:11;98434.53;;;2.70;62.20
75317;BME280;63913;51.492;10.368;2023-04-07T01:49:37;98431.84;;;2.67;62.34
75317;BME280;63913;51.492;10.368;2023-04-07T01:52:04;98436.09;;;2.68;62.37
75317;BME280;63913;51.492;10.368;2023-04-07T01:54:30;98436.97;;;2.68;62.79
75317;BME280;63913;51.492;10.368;2023-04-07T01:56:55;98442.03;;;2.68;62.79
75317;BME280;63913;51.492;10.368;2023-04-07T01:59:21;98438.59;;;2.66;62.55
75317;BME280;63913;51.492;10.368;2023-04-07T02:01:47;98441.03;;;2.65;62.98
75317;BME280;63913;51.492;10.368;2023-04-07T02:06:58;98435.69;;;2.60;62.80
75317;BME280;63913;51.492;10.368;2023-04-07T02:09:33;98437.22;;;2.57;62.72
75317;BME280;63913;51.492;10.368;2023-04-07T02:12:03;98435.38;;;2.54;62.59
75317;BME280;63913;51.492;10.368;2023-04-07T02:14:34;98436.91;;;2.51;62.65
75317;BME280;63913;51.492;10.368;2023-04-07T02:17:04;98433.25;;;2.46;62.94
75317;BME280;63913;51.492;10.368;2023-04-07T02:19:31;98433.25;;;2.46;62.91
75317;BME280;63913;51.492;10.368;2023-04-07T02:21:59;98428.16;;;2.46;62.91
75317;BME280;63913;51.492;10.368;2023-04-07T02:24:25;98433.16;;;2.44;63.44
75317;BME280;63913;51.492;10.368;2023-04-07T02:26:51;98424.75;;;2.45;63.25
75317;BME280;63913;51.492;10.368;2023-04-07T02:29:16;98436.44;;;2.42;63.53
75317;BME280;63913;51.492;10.368;2023-04-07T02:31:42;98429.53;;;2.39;63.48
75317;BME280;63913;51.492;10.368;2023-04-07T02:34:07;98425.50;;;2.43;63.20
75317;BME280;63913;51.492;10.368;2023-04-07T02:36:32;98426.50;;;2.46;63.00
75317;BME280;63913;51.492;10.368;2023-04-07T02:38:58;98430.63;;;2.44;62.84
75317;BME280;63913;51.492;10.368;2023-04-07T02:41:23;98430.63;;;2.44;62.68
75317;BME280;63913;51.492;10.368;2023-04-07T02:43:48;98433.34;;;2.47;62.73
75317;BME280;63913;51.492;10.368;2023-04-07T02:46:14;98425.53;;;2.44;63.02
75317;BME280;63913;51.492;10.368;2023-04-07T02:48:40;98436.50;;;2.43;63.01
75317;BME280;63913;51.492;10.368;2023-04-07T02:51:05;98431.28;;;2.40;62.95
75317;BME280;63913;51.492;10.368;2023-04-07T02:53:30;98431.19;;;2.39;62.92
75317;BME280;63913;51.492;10.368;2023-04-07T02:55:56;98430.00;;;2.32;63.38
75317;BME280;63913;51.492;10.368;2023-04-07T02:58:21;98423.81;;;2.27;63.32
75317;BME280;63913;51.492;10.368;2023-04-07T03:00:47;98431.16;;;2.22;63.58
75317;BME280;63913;51.492;10.368;2023-04-07T03:03:17;98430.06;;;2.17;64.13
75317;BME280;63913;51.492;10.368;2023-04-07T03:05:54;98424.63;;;2.11;64.29
75317;BME280;63913;51.492;10.368;2023-04-07T03:08:19;98423.69;;;2.09;64.46
75317;BME280;63913;51.492;10.368;2023-04-07T03:10:45;98419.50;;;2.10;64.19
75317;BME280;63913;51.492;10.368;2023-04-07T03:13:11;98422.97;;;2.12;63.86
75317;BME280;63913;51.492;10.368;2023-04-07T03:15:40;98422.59;;;2.20;63.68
75317;BME280;63913;51.492;10.368;2023-04-07T03:18:05;98424.03;;;2.32;63.11
75317;BME280;63913;51.492;10.368;2023-04-07T03:20:31;98423.97;;;2.30;63.27
75317;BME280;63913;51.492;10.368;2023-04-07T03:23:01;98419.13;;;2.18;63.47
75317;BME280;63913;51.492;10.368;2023-04-07T03:25:28;98415.75;;;2.03;64.05
75317;BME280;63913;51.492;10.368;2023-04-07T03:27:54;98412.88;;;1.97;64.29
75317;BME280;63913;51.492;10.368;2023-04-07T03:30:20;98416.06;;;1.93;64.59
75317;BME280;63913;51.492;10.368;2023-04-07T03:32:46;98413.25;;;1.88;64.88
75317;BME280;63913;51.492;10.368;2023-04-07T03:35:11;98418.50;;;1.91;64.60
75317;BME280;63913;51.492;10.368;2023-04-07T03:37:37;98420.09;;;1.89;64.53
75317;BME280;63913;51.492;10.368;2023-04-07T03:40:05;98413.53;;;1.93;64.55
75317;BME280;63913;51.492;10.368;2023-04-07T03:42:34;98412.25;;;1.85;65.01
75317;BME280;63913;51.492;10.368;2023-04-07T03:45:02;98411.03;;;1.78;65.19
75317;BME280;63913;51.492;10.368;2023-04-07T03:47:29;98405.97;;;1.78;65.03
75317;BME280;63913;51.492;10.368;2023-04-07T03:49:59;98405.88;;;1.77;65.37
75317;BME280;63913;51.492;10.368;2023-04-07T03:52:26;98409.44;;;1.80;65.32
75317;BME280;63913;51.492;10.368;2023-04-07T03:54:58;98404.38;;;1.80;65.26
75317;BME280;63913;51.492;10.368;2023-04-07T03:57:28;98406.81;;;1.79;65.60
75317;BME280;63913;51.492;10.368;2023-04-07T03:59:54;98405.78;;;1.75;65.57
75317;BME280;63913;51.492;10.368;2023-04-07T04:02:20;98404.91;;;1.75;65.42
75317;BME280;63913;51.492;10.368;2023-04-07T04:04:49;98401.31;;;1.71;65.63
75317;BME280;63913;51.492;10.368;2023-04-07T04:07:15;98404.81;;;1.73;65.76
75317;BME280;63913;51.492;10.368;2023-04-07T04:09:47;98411.56;;;1.73;65.86
75317;BME280;63913;51.492;10.368;2023-04-07T04:12:12;98408.22;;;1.74;65.81
75317;BME280;63913;51.492;10.368;2023-04-07T04:14:45;98414.97;;;1.73;65.64
75317;BME280;63913;51.492;10.368;2023-04-07T04:17:12;98412.34;;;1.72;65.57
75317;BME280;63913;51.492;10.368;2023-04-07T04:19:43;98409.75;;;1.70;65.79
75317;BME280;63913;51.492;10.368;2023-04-07T04:22:19;98403.81;;;1.70;65.55
75317;BME280;63913;51.492;10.368;2023-04-07T04:24:50;98414.09;;;1.73;65.73
75317;BME280;63913;51.492;10.368;2023-04-07T04:27:15;98405.66;;;1.58;66.25
75317;BME280;63913;51.492;10.368;2023-04-07T04:29:42;98413.25;;;1.58;65.98
75317;BME280;63913;51.492;10.368;2023-04-07T04:32:10;98404.94;;;1.60;65.98
75317;BME280;63913;51.492;10.368;2023-04-07T04:34:35;98410.53;;;1.54;66.13
75317;BME280;63913;51.492;10.368;2023-04-07T04:37:01;98407.50;;;1.60;66.22
75317;BME280;63913;51.492;10.368;2023-04-07T04:39:26;98410.91;;;1.61;66.30
75317;BME280;63913;51.492;10.368;2023-04-07T04:41:52;98407.31;;;1.57;66.23
75317;BME280;63913;51.492;10.368;2023-04-07T04:44:19;98407.84;;;1.51;66.59
75317;BME280;63913;51.492;10.368;2023-04-07T04:46:45;98411.75;;;1.46;66.83
75317;BME280;63913;51.492;10.368;2023-04-07T04:49:10;98417.88;;;1.50;66.78
75317;BME280;63913;51.492;10.368;2023-04-07T04:51:36;98421.75;;;1.43;67.17
75317;BME280;63913;51.492;10.368;2023-04-07T04:54:10;98409.09;;;1.43;67.12
75317;BME280;63913;51.492;10.368;2023-04-07T04:56:36;98414.25;;;1.45;67.02
75317;BME280;63913;51.492;10.368;2023-04-07T04:59:03;98418.59;;;1.47;66.85
75317;BME280;63913;51.492;10.368;2023-04-07T05:01:37;98413.88;;;1.53;66.67
75317;BME280;63913;51.492;10.368;2023-04-07T05:04:07;98413.34;;;1.59;66.44
75317;BME280;63913;51.492;10.368;2023-04-07T05:06:34;98410.03;;;1.60;66.50
75317;BME280;63913;51.492;10.368;2023-04-07T05:09:05;98408.59;;;1.65;66.22
75317;BME280;63913;51.492;10.368;2023-04-07T05:11:40;98415.84;;;1.74;65.70
75317;BME280;63913;51.492;10.368;2023-04-07T05:14:05;98405.00;;;1.76;65.75
75317;BME280;63913;51.492;10.368;2023-04-07T05:16:31;98416.81;;;1.76;65.68
75317;BME280;63913;51.492;10.368;2023-04-07T05:18:56;98419.47;;;1.79;66.03
75317;BME280;63913;51.492;10.368;2023-04-07T05:21:23;98412.06;;;1.82;65.98
75317;BME280;63913;51.492;10.368;2023-04-07T05:23:51;98416.25;;;1.81;65.71
75317;BME280;63913;51.492;10.368;2023-04-07T05:26:19;98424.44;;;1.92;65.35
75317;BME280;63913;51.492;10.368;2023-04-07T05:28:47;98422.16;;;1.97;65.07
75317;BME280;63913;51.492;10.368;2023-04-07T05:31:17;98427.50;;;2.01;64.93
75317;BME280;63913;51.492;10.368;2023-04-07T05:33:44;98414.81;;;2.01;64.83
75317;BME280;63913;51.492;10.368;2023-04-07T05:36:10;98417.75;;;2.09;64.53
75317;BME280;63913;51.492;10.368;2023-04-07T05:38:38;98418.25;;;2.18;64.16
75317;BME280;63913;51.492;10.368;2023-04-07T05:41:10;98417.69;;;2.23;64.60
75317;BME280;63913;51.492;10.368;2023-04-07T05:43:36;98426.50;;;2.30;64.75
75317;BME280;63913;51.492;10.368;2023-04-07T05:46:03;98416.44;;;2.32;64.89
75317;BME280;63913;51.492;10.368;2023-04-07T05:48:29;98423.50;;;2.37;64.52
75317;BME280;63913;51.492;10.368;2023-04-07T05:50:54;98425.31;;;2.40;64.22
75317;BME280;63913;51.492;10.368;2023-04-07T05:53:20;98428.97;;;2.45;63.50
75317;BME280;63913;51.492;10.368;2023-04-07T05:55:45;98427.78;;;2.54;63.31
75317;BME280;63913;51.492;10.368;2023-04-07T05:58:19;98433.16;;;2.60;63.70
75317;BME280;63913;51.492;10.368;2023-04-07T06:00:49;98435.16;;;2.66;63.25
75317;BME280;63913;51.492;10.368;2023-04-07T06:03:16;98439.69;;;2.72;62.44
75317;BME280;63913;51.492;10.368;2023-04-07T06:05:53;98436.44;;;2.74;62.45
75317;BME280;63913;51.492;10.368;2023-04-07T06:08:20;98431.50;;;2.77;62.79
75317;BME280;63913;51.492;10.368;2023-04-07T06:10:45;98438.78;;;2.87;61.81
75317;BME280;63913;51.492;10.368;2023-04-07T06:13:11;98446.97;;;2.98;61.84
75317;BME280;63913;51.492;10.368;2023-04-07T06:15:36;98439.72;;;3.05;61.47
75317;BME280;63913;51.492;10.368;2023-04-07T06:18:02;98444.69;;;3.20;59.97
75317;BME280;63913;51.492;10.368;2023-04-07T06:20:27;98450.31;;;3.31;60.24
75317;BME280;63913;51.492;10.368;2023-04-07T06:22:53;98446.56;;;3.40;59.89
75317;BME280;63913;51.492;10.368;2023-04-07T06:25:19;98454.69;;;3.51;59.85
75317;BME280;63913;51.492;10.368;2023-04-07T06:27:44;98459.94;;;3.54;59.45
75317;BME280;63913;51.492;10.368;2023-04-07T06:30:10;98453.66;;;3.64;59.15
75317;BME280;63913;51.492;10.368;2023-04-07T06:32:35;98457.25;;;3.69;58.74
75317;BME280;63913;51.492;10.368;2023-04-07T06:35:01;98449.00;;;3.73;58.34
75317;BME280;63913;51.492;10.368;2023-04-07T06:37:26;98453.63;;;3.81;58.56
75317;BME280;63913;51.492;10.368;2023-04-07T06:39:52;98451.53;;;3.91;58.90
75317;BME280;63913;51.492;10.368;2023-04-07T06:42:18;98446.75;;;3.97;58.50
75317;BME280;63913;51.492;10.368;2023-04-07T06:44:50;98447.16;;;4.06;58.09
75317;BME280;63913;51.492;10.368;2023-04-07T06:47:16;98450.78;;;4.11;58.08
75317;BME280;63913;51.492;10.368;2023-04-07T06:49:41;98454.41;;;4.16;57.28
75317;BME280;63913;51.492;10.368;2023-04-07T06:52:06;98448.88;;;4.25;57.12
75317;BME280;63913;51.492;10.368;2023-04-07T06:54:32;98456.84;;;4.32;57.16
75317;BME280;63913;51.492;10.368;2023-04-07T06:56:57;98452.91;;;4.39;57.00
75317;BME280;63913;51.492;10.368;2023-04-07T06:59:22;98452.47;;;4.47;57.11
75317;BME280;63913;51.492;10.368;2023-04-07T07:01:48;98448.72;;;4.58;56.81
75317;BME280;63913;51.492;10.368;2023-04-07T07:04:13;98446.66;;;4.69;56.59
75317;BME280;63913;51.492;10.368;2023-04-07T07:06:39;98453.97;;;4.81;55.97
75317;BME280;63913;51.492;10.368;2023-04-07T07:09:04;98455.16;;;4.89;55.54
75317;BME280;63913;51.492;10.368;2023-04-07T07:11:29;98447.13;;;4.99;55.52
75317;BME280;63913;51.492;10.368;2023-04-07T07:13:54;98443.22;;;5.07;55.11
75317;BME280;63913;51.492;10.368;2023-04-07T07:16:20;98447.84;;;5.16;54.70
75317;BME280;63913;51.492;10.368;2023-04-07T07:18:48;98442.13;;;5.21;54.76
75317;BME280;63913;51.492;10.368;2023-04-07T07:21:13;98446.66;;;5.28;54.86
75317;BME280;63913;51.492;10.368;2023-04-07T07:23:38;98447.81;;;5.35;55.05
75317;BME280;63913;51.492;10.368;2023-04-07T07:26:04;98447.91;;;5.38;53.99
75317;BME280;63913;51.492;10.368;2023-04-07T07:28:29;98456.66;;;5.43;53.98
75317;BME280;63913;51.492;10.368;2023-04-07T07:30:55;98455.81;;;5.44;53.67
75317;BME280;63913;51.492;10.368;2023-04-07T07:33:20;98458.56;;;5.49;53.93
75317;BME280;63913;51.492;10.368;2023-04-07T07:35:47;98455.28;;;5.51;53.99
75317;BME280;63913;51.492;10.368;2023-04-07T07:38:12;98455.41;;;5.54;53.57
75317;BME280;63913;51.492;10.368;2023-04-07T07:40:38;98468.88;;;5.52;53.55
75317;BME280;63913;51.492;10.368;2023-04-07T07:43:03;98459.56;;;5.52;53.97
75317;BME280;63913;51.492;10.368;2023-04-07T07:45:28;98464.06;;;5.58;53.70
75317;BME280;63913;51.492;10.368;2023-04-07T07:47:54;98471.06;;;5.63;53.95
75317;BME280;63913;51.492;10.368;2023-04-07T07:50:19;98455.28;;;5.72;53.87
75317;BME280;63913;51.492;10.368;2023-04-07T07:52:44;98465.91;;;5.83;52.97
75317;BME280;63913;51.492;10.368;2023-04-07T07:55:10;98466.25;;;5.90;52.88
75317;BME280;63913;51.492;10.368;2023-04-07T07:57:35;98464.09;;;6.01;52.91
75317;BME280;63913;51.492;10.368;2023-04-07T08:00:01;98471.16;;;6.06;53.02
75317;BME280;63913;51.492;10.368;2023-04-07T08:02:38;98472.13;;;6.10;52.96
75317;BME280;63913;51.492;10.368;2023-04-07T08:05:04;98471.56;;;6.17;53.38
75317;BME280;63913;51.492;10.368;2023-04-07T08:07:29;98478.66;;;6.24;52.11
75317;BME280;63913;51.492;10.368;2023-04-07T08:09:54;98483.22;;;6.33;52.40
75317;BME280;63913;51.492;10.368;2023-04-07T08:12:21;98475.88;;;6.40;50.95
75317;BME280;63913;51.492;10.368;2023-04-07T08:14:46;98488.00;;;6.46;51.94
75317;BME280;63913;51.492;10.368;2023-04-07T08:17:11;98485.69;;;6.52;52.57
75317;BME280;63913;51.492;10.368;2023-04-07T08:19:37;98478.22;;;6.58;51.97
75317;BME280;63913;51.492;10.368;2023-04-07T08:22:02;98471.69;;;6.65;51.32
75317;BME280;63913;51.492;10.368;2023-04-07T08:24:28;98483.91;;;6.73;51.24
75317;BME280;63913;51.492;10.368;2023-04-07T08:26:53;98479.09;;;6.81;52.15
75317;BME280;63913;51.492;10.368;2023-04-07T08:29:18;98490.34;;;6.86;50.01
75317;BME280;63913;51.492;10.368;2023-04-07T08:31:44;98483.63;;;6.88;48.93
75317;BME280;63913;51.492;10.368;2023-04-07T08:34:09;98488.00;;;6.92;48.95
75317;BME280;63913;51.492;10.368;2023-04-07T08:36:35;98486.50;;;6.97;49.39
75317;BME280;63913;51.492;10.368;2023-04-07T08:39:00;98482.56;;;7.07;49.06
75317;BME280;63913;51.492;10.368;2023-04-07T08:41:30;98490.56;;;7.16;48.95
75317;BME280;63913;51.492;10.368;2023-04-07T08:43:57;98482.28;;;7.23;48.57
75317;BME280;63913;51.492;10.368;2023-04-07T08:46:24;98484.97;;;7.26;47.87
75317;BME280;63913;51.492;10.368;2023-04-07T08:48:51;98486.91;;;7.33;48.31
75317;BME280;63913;51.492;10.368;2023-04-07T08:51:26;98485.34;;;7.37;46.68
75317;BME280;63913;51.492;10.368;2023-04-07T08:53:52;98488.22;;;7.46;47.60
75317;BME280;63913;51.492;10.368;2023-04-07T08:56:19;98483.41;;;7.55;47.18
75317;BME280;63913;51.492;10.368;2023-04-07T08:58:47;98481.50;;;7.75;47.22
75317;BME280;63913;51.492;10.368;2023-04-07T09:01:13;98475.78;;;8.09;45.73
75317;BME280;63913;51.492;10.368;2023-04-07T09:03:41;98471.88;;;8.76;44.27
75317;BME280;63913;51.492;10.368;2023-04-07T09:06:08;98476.34;;;9.45;42.29
75317;BME280;63913;51.492;10.368;2023-04-07T09:08:34;98470.38;;;10.13;40.38
75317;BME280;63913;51.492;10.368;2023-04-07T09:11:00;98476.94;;;10.76;39.76
75317;BME280;63913;51.492;10.368;2023-04-07T09:13:25;98467.22;;;11.50;38.02
75317;BME280;63913;51.492;10.368;2023-04-07T09:15:51;98470.03;;;12.13;36.78
75317;BME280;63913;51.492;10.368;2023-04-07T09:18:16;98481.16;;;12.68;35.98
75317;BME280;63913;51.492;10.368;2023-04-07T09:20:55;98478.84;;;12.87;35.71
75317;BME280;63913;51.492;10.368;2023-04-07T09:23:32;98479.97;;;13.09;35.79
75317;BME280;63913;51.492;10.368;2023-04-07T09:25:59;98474.09;;;13.19;35.82
75317;BME280;63913;51.492;10.368;2023-04-07T09:28:37;98465.69;;;13.35;36.39
75317;BME280;63913;51.492;10.368;2023-04-07T09:31:02;98470.00;;;13.40;35.59
75317;BME280;63913;51.492;10.368;2023-04-07T09:33:29;98471.13;;;13.61;33.97
75317;BME280;63913;51.492;10.368;2023-04-07T09:35:54;98479.88;;;13.77;33.60
75317;BME280;63913;51.492;10.368;2023-04-07T09:38:21;98471.22;;;13.75;34.00
75317;BME280;63913;51.492;10.368;2023-04-07T09:40:46;98468.47;;;13.57;34.29
75317;BME280;63913;51.492;10.368;2023-04-07T09:43:17;98462.69;;;13.82;34.39
75317;BME280;63913;51.492;10.368;2023-04-07T09:45:43;98461.84;;;13.88;33.79
75317;BME280;63913;51.492;10.368;2023-04-07T09:48:17;98455.94;;;14.04;34.33
75317;BME280;63913;51.492;10.368;2023-04-07T09:50:44;98455.91;;;13.96;34.46
75317;BME280;63913;51.492;10.368;2023-04-07T09:53:14;98449.00;;;13.95;34.11
75317;BME280;63913;51.492;10.368;2023-04-07T09:55:41;98457.63;;;13.94;34.82
75317;BME280;63913;51.492;10.368;2023-04-07T09:58:11;98452.41;;;13.90;34.88
75317;BME280;63913;51.492;10.368;2023-04-07T10:00:38;98452.94;;;13.54;33.75
75317;BME280;63913;51.492;10.368;2023-04-07T10:03:04;98463.06;;;13.32;33.36
75317;BME280;63913;51.492;10.368;2023-04-07T10:05:30;98457.94;;;13.35;34.31
75317;BME280;63913;51.492;10.368;2023-04-07T10:07:57;98454.44;;;13.33;34.62
75317;BME280;63913;51.492;10.368;2023-04-07T10:10:25;98456.06;;;13.21;34.96
75317;BME280;63913;51.492;10.368;2023-04-07T10:12:53;98460.88;;;12.95;35.71
75317;BME280;63913;51.492;10.368;2023-04-07T10:15:20;98462.81;;;13.13;35.29
75317;BME280;63913;51.492;10.368;2023-04-07T10:17:47;98463.63;;;13.10;34.18
75317;BME280;63913;51.492;10.368;2023-04-07T10:20:18;98452.56;;;13.19;35.23
75317;BME280;63913;51.492;10.368;2023-04-07T10:22:48;98465.16;;;12.94;35.83
75317;BME280;63913;51.492;10.368;2023-04-07T10:25:17;98467.97;;;13.13;35.06
75317;BME280;63913;51.492;10.368;2023-04-07T10:27:55;98465.88;;;12.84;34.08
75317;BME280;63913;51.492;10.368;2023-04-07T10:30:30;98460.19;;;13.10;34.37
75317;BME280;63913;51.492;10.368;2023-04-07T10:32:57;98462.91;;;13.22;34.75
75317;BME280;63913;51.492;10.368;2023-04-07T10:35:23;98452.78;;;13.37;35.42
75317;BME280;63913;51.492;10.368;2023-04-07T10:38:10;98461.38;;;13.39;34.17
75317;BME280;63913;51.492;10.368;2023-04-07T10:40:38;98457.19;;;13.46;34.06
75317;BME280;63913;51.492;10.368;2023-04-07T10:43:06;98456.31;;;13.48;33.97
75317;BME280;63913;51.492;10.368;2023-04-07T10:48:16;98468.66;;;13.75;35.15
75317;BME280;63913;51.492;10.368;2023-04-07T10:53:32;98465.38;;;13.97;35.22
75317;BME280;63913;51.492;10.368;2023-04-07T10:56:00;98464.56;;;14.01;35.09
75317;BME280;63913;51.492;10.368;2023-04-07T10:58:27;98465.44;;;14.05;35.45
75317;BME280;63913;51.492;10.368;2023-04-07T11:03:25;98468.13;;;14.17;35.34
75317;BME280;63913;51.492;10.368;2023-04-07T11:05:51;98460.41;;;14.23;34.74
75317;BME280;63913;51.492;10.368;2023-04-07T11:08:49;98450.88;;;14.16;33.93
75317;BME280;63913;51.492;10.368;2023-04-07T11:11:33;98457.81;;;14.22;33.75
75317;BME280;63913;51.492;10.368;2023-04-07T11:14:00;98450.09;;;14.29;32.96
75317;BME280;63913;51.492;10.368;2023-04-07T11:16:41;98458.69;;;14.22;32.07
75317;BME280;63913;51.492;10.368;2023-04-07T11:19:07;98460.50;;;14.37;32.50
75317;BME280;63913;51.492;10.368;2023-04-07T11:21:33;98453.56;;;14.27;33.72
75317;BME280;63913;51.492;10.368;2023-04-07T11:23:59;98456.06;;;14.19;33.74
75317;BME280;63913;51.492;10.368;2023-04-07T11:26:25;98447.50;;;14.28;32.96
75317;BME280;63913;51.492;10.368;2023-04-07T11:28:53;98446.66;;;14.30;33.30
75317;BME280;63913;51.492;10.368;2023-04-07T11:31:27;98456.13;;;14.25;34.29
75317;BME280;63913;51.492;10.368;2023-04-07T11:36:26;98452.75;;;14.37;32.01
75317;BME280;63913;51.492;10.368;2023-04-07T11:38:53;98454.59;;;14.48;31.07
75317;BME280;63913;51.492;10.368;2023-04-07T11:41:18;98447.69;;;14.47;31.53
75317;BME280;63913;51.492;10.368;2023-04-07T11:43:44;98450.25;;;14.47;32.43
75317;BME280;63913;51.492;10.368;2023-04-07T11:46:10;98455.50;;;14.60;33.30
75317;BME280;63913;51.492;10.368;2023-04-07T11:48:38;98449.50;;;14.65;32.85
75317;BME280;63913;51.492;10.368;2023-04-07T11:51:04;98456.44;;;14.71;30.70
75317;BME280;63913;51.492;10.368;2023-04-07T11:53:35;98459.06;;;14.84;30.78
75317;BME280;63913;51.492;10.368;2023-04-07T11:56:05;98457.34;;;14.85;31.49
75317;BME280;63913;51.492;10.368;2023-04-07T11:58:32;98454.75;;;14.85;31.53
75317;BME280;63913;51.492;10.368;2023-04-07T12:00:59;98460.00;;;14.97;31.62
75317;BME280;63913;51.492;10.368;2023-04-07T12:03:29;98451.34;;;14.89;29.44
75317;BME280;63913;51.492;10.368;2023-04-07T12:05:55;98452.25;;;14.97;30.43
75317;BME280;63913;51.492;10.368;2023-04-07T12:08:20;98451.38;;;14.98;30.41
75317;BME280;63913;51.492;10.368;2023-04-07T12:10:47;98453.06;;;14.87;30.58
75317;BME280;63913;51.492;10.368;2023-04-07T12:13:13;98453.97;;;14.97;31.79
75317;BME280;63913;51.492;10.368;2023-04-07T12:15:38;98459.06;;;14.84;30.75
75317;BME280;63913;51.492;10.368;2023-04-07T12:18:04;98452.19;;;14.88;31.06
75317;BME280;63913;51.492;10.368;2023-04-07T12:20:30;98456.56;;;14.97;31.85
75317;BME280;63913;51.492;10.368;2023-04-07T12:22:56;98461.78;;;15.13;30.27
75317;BME280;63913;51.492;10.368;2023-04-07T12:25:22;98458.25;;;14.90;30.42
75317;BME280;63913;51.492;10.368;2023-04-07T12:27:48;98460.03;;;14.99;32.07
75317;BME280;63913;51.492;10.368;2023-04-07T12:30:13;98453.13;;;15.10;31.86
75317;BME280;63913;51.492;10.368;2023-04-07T12:32:40;98457.56;;;15.32;30.59
75317;BME280;63913;51.492;10.368;2023-04-07T12:35:07;98448.00;;;15.19;29.17
75317;BME280;63913;51.492;10.368;2023-04-07T12:37:33;98460.94;;;15.19;30.31
75317;BME280;63913;51.492;10.368;2023-04-07T12:39:58;98454.06;;;15.27;30.13
75317;BME280;63913;51.492;10.368;2023-04-07T12:42:24;98461.00;;;15.36;30.19
75317;BME280;63913;51.492;10.368;2023-04-07T12:44:49;98463.63;;;15.46;30.77
75317;BME280;63913;51.492;10.368;2023-04-07T12:47:15;98454.16;;;15.54;28.99
75317;BME280;63913;51.492;10.368;2023-04-07T12:49:41;98455.88;;;15.58;30.01
75317;BME280;63913;51.492;10.368;2023-04-07T12:52:06;98455.91;;;15.64;29.94
75317;BME280;63913;51.492;10.368;2023-04-07T12:54:32;98442.06;;;15.67;29.95
75317;BME280;63913;51.492;10.368;2023-04-07T12:56:58;98442.94;;;15.60;30.30
75317;BME280;63913;51.492;10.368;2023-04-07T12:59:24;98448.13;;;15.75;30.45
75317;BME280;63913;51.492;10.368;2023-04-07T13:01:49;98448.13;;;15.90;28.91
75317;BME280;63913;51.492;10.368;2023-04-07T13:04:15;98449.00;;;15.92;30.16
75317;BME280;63913;51.492;10.368;2023-04-07T13:06:42;98455.91;;;16.07;27.64
75317;BME280;63913;51.492;10.368;2023-04-07T13:09:07;98457.66;;;16.19;28.46
75317;BME280;63913;51.492;10.368;2023-04-07T13:11:33;98449.00;;;16.20;28.09
75317;BME280;63913;51.492;10.368;2023-04-07T13:13:58;98447.25;;;16.23;29.05
75317;BME280;63913;51.492;10.368;2023-04-07T13:16:23;98451.56;;;16.39;29.65
75317;BME280;63913;51.492;10.368;2023-04-07T13:18:49;98454.19;;;16.36;28.36
75317;BME280;63913;51.492;10.368;2023-04-07T13:21:14;98450.69;;;16.50;27.90
75317;BME280;63913;51.492;10.368;2023-04-07T13:23:40;98447.28;;;15.79;27.75
75317;BME280;63913;51.492;10.368;2023-04-07T13:26:05;98448.16;;;15.95;25.07